Time;durP1;ratioP1;P1;durP2;ratioP2;P2;SDS_P1;SDS_P2;PMS_P1;PMS_P2;Temp;Humidity;BMP_temperature;BMP_pressure;BME280_temperature;BME280_humidity;BME280_pressure;Samples;Min_cycle;Max_cycle;Signal;HPM_P1;HPM_P2
2022/09/12 00:01:10;;;;;;;8.97;8.07;;;14.30;99.90;;;;;;5044404;28;20300;-59
2022/09/12 00:03:37;;;;;;;9.80;8.93;;;14.30;99.90;;;;;;5049592;28;20557;-59
2022/09/12 00:06:30;;;;;;;8.90;8.10;;;14.40;99.90;;;;;;5051432;28;20184;-60
2022/09/12 00:09:00;;;;;;;9.30;8.40;;;14.60;99.90;;;;;;5028575;28;20193;-60
2022/09/12 00:11:26;;;;;;;10.00;7.78;;;14.50;99.90;;;;;;5047156;28;20224;-60
2022/09/12 00:13:59;;;;;;;8.32;7.53;;;14.20;99.90;;;;;;5047296;28;20181;-60
2022/09/12 00:16:27;;;;;;;11.57;7.80;;;14.20;99.90;;;;;;5050490;28;20470;-60
2022/09/12 00:18:53;;;;;;;8.77;7.97;;;14.40;99.90;;;;;;5048030;28;20191;-60
2022/09/12 00:21:19;;;;;;;8.53;7.73;;;14.30;99.90;;;;;;5032616;28;20691;-59
2022/09/12 00:23:46;;;;;;;10.45;8.35;;;14.30;99.90;;;;;;5050278;28;20851;-60
2022/09/12 00:26:12;;;;;;;8.65;7.85;;;14.00;99.90;;;;;;5048925;28;20185;-60
2022/09/12 00:28:39;;;;;;;8.30;7.60;;;14.30;99.90;;;;;;5049494;28;20189;-60
2022/09/12 00:31:07;;;;;;;9.75;8.80;;;14.50;99.90;;;;;;5047466;28;20201;-59
2022/09/12 00:33:34;;;;;;;9.20;8.25;;;14.40;99.90;;;;;;5048783;28;20201;-59
2022/09/12 00:36:09;;;;;;;8.57;7.88;;;14.30;99.90;;;;;;5048547;28;20221;-59
2022/09/12 00:38:37;;;;;;;8.95;8.05;;;14.60;99.90;;;;;;5029316;28;20180;-59
2022/09/12 00:41:04;;;;;;;9.43;8.52;;;14.20;99.90;;;;;;5039712;28;20205;-60
2022/09/12 00:43:29;;;;;;;10.50;8.93;;;14.20;99.90;;;;;;5039554;28;20213;-60
2022/09/12 00:45:56;;;;;;;9.80;8.93;;;14.20;99.90;;;;;;5050655;28;20185;-60
2022/09/12 00:48:32;;;;;;;9.60;8.70;;;14.10;99.90;;;;;;5046802;28;20276;-60
2022/09/12 00:50:59;;;;;;;8.50;7.80;;;14.00;99.90;;;;;;5042509;28;20197;-60
2022/09/12 00:53:25;;;;;;;8.35;7.55;;;14.00;99.90;;;;;;5049308;28;20245;-60
2022/09/12 00:55:53;;;;;;;8.87;8.07;;;14.00;99.90;;;;;;5045288;28;20194;-60
2022/09/12 00:58:26;;;;;;;8.30;7.53;;;14.20;99.90;;;;;;5048657;28;20542;-60
2022/09/12 01:00:51;;;;;;;8.73;7.93;;;14.30;99.90;;;;;;5048405;28;20240;-60
2022/09/12 01:03:21;;;;;;;8.20;7.40;;;14.10;99.90;;;;;;5042671;28;20261;-60
2022/09/12 01:06:08;;;;;;;9.65;8.63;;;14.30;99.90;;;;;;5050046;28;20195;-60
2022/09/12 01:08:39;;;;;;;8.57;7.78;;;14.20;99.90;;;;;;5047504;28;20181;-59
2022/09/12 01:11:07;;;;;;;8.88;8.07;;;14.10;99.90;;;;;;5044855;28;20738;-60
2022/09/12 01:13:36;;;;;;;9.77;8.85;;;14.20;99.90;;;;;;5050546;28;20264;-60
2022/09/12 01:16:04;;;;;;;9.13;8.25;;;14.20;99.90;;;;;;5046422;28;20282;-60
2022/09/12 01:18:52;;;;;;;9.40;8.50;;;14.10;99.90;;;;;;5046204;28;20178;-60
2022/09/12 01:21:46;;;;;;;10.20;9.25;;;14.20;99.90;;;;;;5046897;28;20575;-60
2022/09/12 01:24:39;;;;;;;9.05;8.15;;;13.90;99.90;;;;;;5043334;28;20611;-60
2022/09/12 01:27:11;;;;;;;8.90;8.10;;;14.20;99.90;;;;;;5048863;28;20217;-60
2022/09/12 01:29:39;;;;;;;9.40;8.50;;;14.10;99.90;;;;;;5047490;28;20181;-60
2022/09/12 01:32:20;;;;;;;8.63;7.78;;;13.80;99.90;;;;;;5049347;28;20181;-60
2022/09/12 01:35:11;;;;;;;8.88;8.07;;;14.00;99.90;;;;;;5047742;28;20192;-60
2022/09/12 01:37:48;;;;;;;9.77;7.82;;;13.70;99.90;;;;;;5047498;28;20190;-60
2022/09/12 01:40:22;;;;;;;8.98;8.18;;;13.60;99.90;;;;;;5040726;28;20207;-60
2022/09/12 01:43:03;;;;;;;9.98;9.02;;;13.80;99.90;;;;;;5049690;28;20210;-59
2022/09/12 01:45:45;;;;;;;10.18;8.20;;;13.60;99.90;;;;;;5046016;28;20181;-60
2022/09/12 01:48:22;;;;;;;9.20;8.30;;;13.60;99.90;;;;;;5045611;28;20251;-60
2022/09/12 01:51:03;;;;;;;9.50;8.70;;;13.60;99.90;;;;;;5046224;28;20189;-60
2022/09/12 01:53:35;;;;;;;9.68;8.77;;;13.50;99.90;;;;;;5049749;28;20273;-59
2022/09/12 01:56:21;;;;;;;9.43;8.60;;;13.50;99.90;;;;;;5047419;28;20264;-59
2022/09/12 01:59:04;;;;;;;9.70;8.60;;;13.50;99.90;;;;;;5046285;28;20613;-59
2022/09/12 02:01:35;;;;;;;9.20;8.27;;;13.50;99.90;;;;;;5039811;28;20209;-60
2022/09/12 02:04:03;;;;;;;9.15;8.13;;;13.50;99.90;;;;;;5044764;28;20308;-59
2022/09/12 02:06:35;;;;;;;9.27;8.20;;;13.50;99.90;;;;;;5049727;28;20654;-59
2022/09/12 02:09:07;;;;;;;9.00;8.18;;;13.50;99.90;;;;;;5048121;28;20185;-59
2022/09/12 02:11:35;;;;;;;9.48;8.55;;;13.60;99.90;;;;;;5030430;28;20209;-60
2022/09/12 02:14:15;;;;;;;8.85;8.00;;;13.40;99.90;;;;;;5036093;28;20210;-59
2022/09/12 02:17:06;;;;;;;9.70;8.80;;;13.50;99.90;;;;;;5043956;28;20177;-59
2022/09/12 02:19:58;;;;;;;9.32;7.80;;;13.50;99.90;;;;;;5047149;28;20264;-60
2022/09/12 02:22:26;;;;;;;10.43;9.43;;;13.40;99.90;;;;;;5038700;28;20293;-59
2022/09/12 02:24:57;;;;;;;9.75;8.82;;;13.60;99.90;;;;;;5052647;28;20208;-59
2022/09/12 02:27:31;;;;;;;9.95;8.95;;;13.60;99.90;;;;;;5053343;28;20178;-59
2022/09/12 02:29:57;;;;;;;10.57;9.52;;;13.70;99.90;;;;;;5053075;28;20190;-59
2022/09/12 02:32:49;;;;;;;9.40;8.50;;;13.50;99.90;;;;;;5053412;28;20181;-59
2022/09/12 02:35:33;;;;;;;10.35;9.35;;;13.60;99.90;;;;;;5046157;28;20639;-59
2022/09/12 02:38:13;;;;;;;11.48;10.27;;;13.40;99.90;;;;;;5042074;28;20227;-59
2022/09/12 02:40:40;;;;;;;10.98;9.90;;;13.70;99.90;;;;;;5037276;28;20209;-59
2022/09/12 02:43:06;;;;;;;10.00;9.00;;;13.60;99.90;;;;;;5052359;28;20205;-60
2022/09/12 02:45:33;;;;;;;10.57;9.50;;;13.70;99.90;;;;;;5046380;28;20221;-60
2022/09/12 02:48:08;;;;;;;11.02;9.93;;;13.40;99.90;;;;;;5051031;28;20182;-58
2022/09/12 02:50:34;;;;;;;11.90;9.18;;;13.40;99.90;;;;;;5044683;28;20193;-58
2022/09/12 02:53:03;;;;;;;12.40;9.00;;;13.40;99.90;;;;;;5046244;28;20646;-58
2022/09/12 02:55:33;;;;;;;13.07;11.77;;;13.40;99.90;;;;;;5049822;28;20439;-59
2022/09/12 02:58:05;;;;;;;11.35;10.02;;;13.50;99.90;;;;;;5049666;28;20197;-61
2022/09/12 03:00:40;;;;;;;11.43;10.43;;;13.40;99.90;;;;;;5051264;28;20236;-58
2022/09/12 03:03:18;;;;;;;12.20;10.98;;;13.50;99.90;;;;;;5045983;28;20212;-59
2022/09/12 03:05:54;;;;;;;11.93;10.40;;;13.60;99.90;;;;;;5051388;28;20222;-59
2022/09/12 03:08:28;;;;;;;11.93;10.75;;;13.60;99.90;;;;;;5051449;28;20794;-58
2022/09/12 03:11:12;;;;;;;11.85;9.85;;;13.40;99.90;;;;;;5044716;28;20201;-59
2022/09/12 03:14:09;;;;;;;10.90;9.98;;;13.60;99.90;;;;;;5052236;28;20177;-58
2022/09/12 03:16:57;;;;;;;12.00;10.80;;;13.30;99.90;;;;;;5042238;28;20205;-58
2022/09/12 03:19:51;;;;;;;11.30;10.20;;;13.70;99.90;;;;;;5045962;28;20181;-58
2022/09/12 03:22:30;;;;;;;11.93;10.73;;;13.20;99.90;;;;;;5048550;28;20193;-58
2022/09/12 03:25:19;;;;;;;12.27;11.00;;;13.40;99.90;;;;;;5050675;28;20268;-59
2022/09/12 03:28:06;;;;;;;12.48;11.18;;;13.20;99.90;;;;;;5051989;28;20212;-58
2022/09/12 03:30:43;;;;;;;13.30;11.90;;;13.40;99.90;;;;;;5050444;28;20281;-59
2022/09/12 03:33:14;;;;;;;11.48;10.38;;;13.40;99.90;;;;;;5048720;28;20192;-58
2022/09/12 03:35:40;;;;;;;11.55;10.35;;;13.40;99.90;;;;;;5049443;28;20250;-59
2022/09/12 03:38:06;;;;;;;10.57;9.48;;;13.30;99.90;;;;;;5050812;28;20190;-58
2022/09/12 03:40:33;;;;;;;11.10;10.00;;;13.40;99.90;;;;;;5043730;28;20204;-58
2022/09/12 03:42:59;;;;;;;11.20;10.10;;;13.30;99.90;;;;;;5052103;28;20198;-59
2022/09/12 03:45:25;;;;;;;11.57;9.83;;;13.30;99.90;;;;;;5051601;28;20182;-58
2022/09/12 03:47:50;;;;;;;10.10;9.10;;;13.20;99.90;;;;;;5030054;28;20655;-59
2022/09/12 03:50:16;;;;;;;11.73;9.87;;;13.30;99.90;;;;;;5047077;28;20201;-59
2022/09/12 03:52:42;;;;;;;11.33;10.23;;;13.20;99.90;;;;;;5050901;28;20185;-58
2022/09/12 03:55:08;;;;;;;11.20;10.07;;;13.30;99.90;;;;;;5042787;28;20848;-59
2022/09/12 03:57:34;;;;;;;10.15;9.25;;;13.20;99.90;;;;;;5048863;28;20190;-58
2022/09/12 04:00:00;;;;;;;11.07;9.57;;;13.30;99.90;;;;;;5050326;28;20274;-59
2022/09/12 04:02:27;;;;;;;11.10;9.88;;;13.20;99.90;;;;;;5050548;28;20217;-58
2022/09/12 04:04:52;;;;;;;11.68;10.48;;;13.20;99.90;;;;;;5030998;28;20232;-58
2022/09/12 04:07:18;;;;;;;12.17;10.67;;;13.40;99.90;;;;;;5051584;28;20651;-59
2022/09/12 04:09:43;;;;;;;11.23;9.97;;;13.20;99.90;;;;;;5046904;28;20240;-58
2022/09/12 04:12:10;;;;;;;11.67;10.43;;;13.20;99.90;;;;;;5050015;28;20185;-58
2022/09/12 04:14:35;;;;;;;11.52;10.43;;;13.10;99.90;;;;;;5049702;28;20190;-58
2022/09/12 04:17:01;;;;;;;11.20;9.70;;;13.10;99.90;;;;;;5050342;28;20192;-58
2022/09/12 04:19:27;;;;;;;10.87;9.73;;;13.20;99.90;;;;;;5049952;28;20204;-58
2022/09/12 04:21:52;;;;;;;11.50;10.30;;;12.90;99.90;;;;;;5043074;28;20241;-59
2022/09/12 04:24:18;;;;;;;11.40;10.30;;;13.00;99.90;;;;;;5042195;28;20193;-59
2022/09/12 04:26:44;;;;;;;11.30;10.17;;;13.10;99.90;;;;;;5051020;28;20356;-59
2022/09/12 04:29:13;;;;;;;10.73;9.63;;;13.10;99.90;;;;;;5050818;28;20976;-59
2022/09/12 04:31:39;;;;;;;10.77;9.77;;;12.90;99.90;;;;;;5047699;28;20201;-59
2022/09/12 04:34:05;;;;;;;10.97;9.87;;;13.20;99.90;;;;;;5044353;28;20268;-59
2022/09/12 04:36:33;;;;;;;10.35;9.27;;;13.00;99.90;;;;;;5032092;28;20432;-59
2022/09/12 04:39:00;;;;;;;10.63;9.40;;;12.80;99.90;;;;;;5047996;28;20724;-59
2022/09/12 04:41:29;;;;;;;11.07;9.60;;;12.90;99.90;;;;;;5034933;28;20550;-59
2022/09/12 04:44:03;;;;;;;10.20;9.20;;;12.90;99.90;;;;;;5043295;28;20544;-60
2022/09/12 04:46:30;;;;;;;11.60;10.50;;;13.10;99.90;;;;;;5044922;28;20192;-60
2022/09/12 04:48:56;;;;;;;12.85;9.35;;;12.80;99.90;;;;;;5048246;28;20199;-59
2022/09/12 04:51:26;;;;;;;11.63;10.37;;;12.80;99.90;;;;;;5038082;28;20687;-59
2022/09/12 04:53:57;;;;;;;9.45;8.50;;;12.90;99.90;;;;;;5045904;28;20451;-60
2022/09/12 04:56:24;;;;;;;9.50;8.57;;;12.90;99.90;;;;;;5044972;28;20245;-60
2022/09/12 04:58:49;;;;;;;10.13;9.13;;;12.90;99.90;;;;;;5048798;28;20610;-60
2022/09/12 05:01:18;;;;;;;9.37;8.47;;;13.10;99.90;;;;;;5039998;28;20201;-59
2022/09/12 05:03:45;;;;;;;9.45;8.55;;;13.00;99.90;;;;;;5042710;28;20244;-59
2022/09/12 05:06:20;;;;;;;12.23;9.77;;;12.90;99.90;;;;;;5046116;28;20209;-59
2022/09/12 05:08:46;;;;;;;10.50;9.02;;;13.10;99.90;;;;;;5048783;28;20190;-59
2022/09/12 05:11:17;;;;;;;10.02;9.05;;;12.70;99.90;;;;;;5040650;28;20803;-60
2022/09/12 05:13:43;;;;;;;11.65;10.52;;;12.80;99.90;;;;;;5045582;28;20330;-60
2022/09/12 05:16:11;;;;;;;10.10;9.17;;;12.80;99.90;;;;;;5046577;28;20265;-60
2022/09/12 05:18:37;;;;;;;10.52;9.43;;;12.80;99.90;;;;;;5041872;28;20196;-57
2022/09/12 05:21:05;;;;;;;11.20;10.10;;;12.90;99.90;;;;;;5042687;28;20226;-57
2022/09/12 05:23:32;;;;;;;10.05;9.05;;;12.70;99.90;;;;;;5040496;28;20577;-57
2022/09/12 05:25:59;;;;;;;10.50;9.50;;;12.90;99.90;;;;;;5037392;28;20186;-57
2022/09/12 05:28:30;;;;;;;10.63;9.55;;;13.00;99.90;;;;;;5031216;28;20185;-58
2022/09/12 05:31:07;;;;;;;9.57;8.68;;;12.60;99.90;;;;;;5048037;28;20351;-57
2022/09/12 05:33:36;;;;;;;14.98;11.75;;;12.60;99.90;;;;;;5034501;28;20181;-57
2022/09/12 05:36:03;;;;;;;10.13;9.00;;;12.70;99.90;;;;;;5043216;28;20184;-58
2022/09/12 05:38:29;;;;;;;12.77;9.93;;;12.80;99.90;;;;;;5042990;28;20189;-58
2022/09/12 05:41:11;;;;;;;11.37;10.23;;;12.80;99.90;;;;;;5044817;28;20226;-57
2022/09/12 05:43:38;;;;;;;10.63;9.63;;;12.80;99.90;;;;;;5041439;28;20701;-58
2022/09/12 05:46:09;;;;;;;10.43;9.35;;;12.80;99.90;;;;;;5039384;28;20181;-57
2022/09/12 05:48:35;;;;;;;11.00;9.82;;;13.00;99.90;;;;;;5046274;28;20550;-57
2022/09/12 05:51:07;;;;;;;10.05;9.15;;;13.00;99.90;;;;;;5042604;28;20648;-63
2022/09/12 05:53:36;;;;;;;10.55;9.52;;;13.30;99.90;;;;;;5042613;28;20531;-55
2022/09/12 05:56:06;;;;;;;11.32;9.55;;;13.30;99.90;;;;;;5043395;28;20647;-55
2022/09/12 05:58:36;;;;;;;11.90;10.80;;;13.20;99.90;;;;;;5030535;28;20197;-55
2022/09/12 06:01:08;;;;;;;11.45;10.10;;;13.30;99.90;;;;;;5047032;28;20204;-55
2022/09/12 06:03:39;;;;;;;11.85;10.60;;;13.40;99.90;;;;;;5049722;28;20237;-53
2022/09/12 06:06:05;;;;;;;10.93;9.82;;;13.50;99.90;;;;;;5051994;28;20220;-54
2022/09/12 06:08:32;;;;;;;10.10;9.10;;;13.80;99.90;;;;;;5050471;28;20187;-54
2022/09/12 06:10:59;;;;;;;12.45;11.25;;;13.80;99.90;;;;;;5045722;28;20283;-54
2022/09/12 06:13:25;;;;;;;10.98;9.98;;;13.90;99.90;;;;;;5033572;28;20181;-54
2022/09/12 06:15:51;;;;;;;11.67;10.43;;;13.90;99.90;;;;;;5049800;28;20189;-55
2022/09/12 06:18:16;;;;;;;11.17;10.10;;;13.90;99.90;;;;;;5050697;28;20216;-54
2022/09/12 06:20:42;;;;;;;12.70;11.00;;;14.10;99.90;;;;;;5049988;28;20281;-54
2022/09/12 06:23:07;;;;;;;11.10;9.93;;;14.30;99.90;;;;;;5052327;28;20259;-53
2022/09/12 06:25:33;;;;;;;12.43;11.07;;;14.10;99.90;;;;;;5042220;28;20193;-54
2022/09/12 06:27:58;;;;;;;11.67;10.50;;;14.20;99.90;;;;;;5051673;28;20190;-53
2022/09/12 06:30:24;;;;;;;13.60;12.20;;;14.40;99.90;;;;;;5051961;28;20213;-55
2022/09/12 06:32:49;;;;;;;14.93;12.40;;;14.60;99.90;;;;;;5042744;28;20186;-54
2022/09/12 06:35:15;;;;;;;11.67;10.40;;;14.60;99.90;;;;;;5050325;28;20276;-53
2022/09/12 06:37:43;;;;;;;12.33;11.03;;;14.60;99.90;;;;;;5051185;28;20251;-54
2022/09/12 06:40:09;;;;;;;11.80;9.95;;;14.70;99.90;;;;;;5048879;28;20224;-54
2022/09/12 06:42:35;;;;;;;11.05;9.77;;;14.90;99.90;;;;;;5050619;28;20670;-54
2022/09/12 06:45:00;;;;;;;12.00;10.80;;;15.70;99.90;;;;;;5051895;28;20192;-54
2022/09/12 06:47:27;;;;;;;13.10;11.80;;;15.30;99.90;;;;;;5045489;28;20594;-54
2022/09/12 06:49:52;;;;;;;11.98;10.85;;;15.60;99.90;;;;;;5049938;28;20541;-54
2022/09/12 06:52:18;;;;;;;12.63;11.43;;;16.10;99.90;;;;;;5044928;28;20190;-54
2022/09/12 06:54:43;;;;;;;11.90;10.17;;;16.20;99.90;;;;;;5044649;28;20571;-55
2022/09/12 06:57:09;;;;;;;12.67;11.43;;;16.60;99.90;;;;;;5051637;28;20189;-53
2022/09/12 06:59:34;;;;;;;12.27;11.07;;;16.60;99.90;;;;;;5046904;28;20214;-52
2022/09/12 07:02:00;;;;;;;11.13;10.00;;;17.20;99.90;;;;;;5050970;28;20586;-56
2022/09/12 07:04:26;;;;;;;14.50;10.70;;;17.30;99.90;;;;;;5046232;28;20185;-54
2022/09/12 07:06:52;;;;;;;10.57;9.43;;;18.40;99.90;;;;;;5050218;28;20235;-55
2022/09/12 07:09:17;;;;;;;11.23;9.87;;;20.70;99.90;;;;;;5039873;28;20186;-55
2022/09/12 07:11:44;;;;;;;10.10;8.73;;;22.40;96.80;;;;;;5050738;28;20209;-55
2022/09/12 07:14:12;;;;;;;8.83;8.10;;;24.50;92.00;;;;;;5051379;28;20555;-55
2022/09/12 07:16:38;;;;;;;9.20;8.40;;;26.20;86.40;;;;;;5049231;28;20440;-55
2022/09/12 07:19:05;;;;;;;10.00;9.17;;;27.50;80.10;;;;;;5049862;28;20452;-55
2022/09/12 07:21:31;;;;;;;8.73;7.77;;;28.20;72.30;;;;;;5051173;28;20213;-55
2022/09/12 07:23:57;;;;;;;8.33;7.63;;;28.60;72.40;;;;;;5048866;28;20434;-54
2022/09/12 07:26:27;;;;;;;9.23;8.43;;;30.20;68.10;;;;;;5049567;28;20425;-54
2022/09/12 07:28:54;;;;;;;8.70;7.90;;;31.10;61.90;;;;;;5047904;28;20442;-53
2022/09/12 07:31:22;;;;;;;8.70;8.10;;;31.60;59.20;;;;;;5046489;28;20776;-54
2022/09/12 07:33:49;;;;;;;7.87;7.27;;;33.00;56.80;;;;;;5050169;28;20885;-53
2022/09/12 07:36:17;;;;;;;6.90;6.30;;;32.00;55.20;;;;;;5051299;28;20909;-54
2022/09/12 07:38:45;;;;;;;7.20;6.70;;;33.80;54.90;;;;;;5050561;28;20424;-54
2022/09/12 07:41:10;;;;;;;7.53;6.90;;;35.40;51.20;;;;;;5046856;28;20550;-54
2022/09/12 07:43:36;;;;;;;7.93;7.23;;;35.00;49.60;;;;;;5050864;28;20902;-54
2022/09/12 07:46:02;;;;;;;7.40;6.77;;;33.20;52.10;;;;;;5051196;28;20200;-54
2022/09/12 07:48:27;;;;;;;7.40;6.80;;;34.80;50.30;;;;;;5046733;28;20512;-54
2022/09/12 07:51:01;;;;;;;6.50;6.00;;;36.50;47.60;;;;;;5050917;28;20202;-54
2022/09/12 07:53:32;;;;;;;6.97;6.27;;;37.40;45.10;;;;;;5046561;28;20197;-55
2022/09/12 07:55:59;;;;;;;5.87;5.57;;;37.70;43.80;;;;;;5048556;28;20508;-55
2022/09/12 07:58:24;;;;;;;5.60;5.20;;;37.10;44.10;;;;;;5046011;28;20526;-54
2022/09/12 08:00:51;;;;;;;5.70;5.20;;;38.30;42.40;;;;;;5049166;28;20459;-55
2022/09/12 08:03:17;;;;;;;5.63;5.23;;;39.20;40.70;;;;;;5045012;28;20288;-55
2022/09/12 08:05:42;;;;;;;5.47;5.00;;;38.70;40.00;;;;;;5048266;28;20450;-55
2022/09/12 08:08:08;;;;;;;5.33;5.00;;;39.00;39.40;;;;;;5050820;28;20468;-54
2022/09/12 08:10:34;;;;;;;5.23;4.73;;;38.70;39.10;;;;;;5047305;28;20280;-54
2022/09/12 08:13:00;;;;;;;6.07;5.67;;;37.60;40.50;;;;;;5043878;28;20566;-54
2022/09/12 08:15:25;;;;;;;6.47;5.93;;;36.80;41.50;;;;;;5050168;28;20213;-55
2022/09/12 08:17:51;;;;;;;7.20;6.70;;;37.00;41.30;;;;;;5038113;28;20272;-54
2022/09/12 08:20:16;;;;;;;7.30;6.60;;;36.90;41.70;;;;;;5046683;28;20685;-54
2022/09/12 08:22:43;;;;;;;10.07;9.27;;;36.60;42.30;;;;;;5044667;28;20638;-54
2022/09/12 08:25:09;;;;;;;6.93;6.00;;;37.70;41.30;;;;;;5046768;28;20170;-55
2022/09/12 08:27:35;;;;;;;6.63;6.03;;;38.70;40.50;;;;;;5050657;28;20545;-54
2022/09/12 08:30:00;;;;;;;6.67;6.13;;;38.50;39.50;;;;;;5049450;28;20974;-54
2022/09/12 08:32:26;;;;;;;9.03;8.23;;;38.30;39.20;;;;;;5047420;28;20189;-54
2022/09/12 08:34:51;;;;;;;9.70;9.00;;;38.80;39.60;;;;;;5046112;28;20181;-54
2022/09/12 08:37:17;;;;;;;11.13;10.13;;;38.30;38.70;;;;;;5049820;28;20170;-54
2022/09/12 08:39:43;;;;;;;7.33;6.83;;;38.00;39.30;;;;;;5047731;28;20261;-54
2022/09/12 08:42:16;;;;;;;8.17;7.40;;;36.80;40.10;;;;;;5050780;28;20486;-54
2022/09/12 08:44:51;;;;;;;7.70;6.90;;;35.30;42.30;;;;;;5044959;28;20186;-54
2022/09/12 08:47:37;;;;;;;7.53;6.40;;;33.00;45.40;;;;;;5050089;28;20579;-54
2022/09/12 08:50:08;;;;;;;6.77;6.20;;;30.70;49.20;;;;;;5043005;28;20439;-53
2022/09/12 08:52:53;;;;;;;6.50;6.00;;;29.40;52.80;;;;;;5049989;28;20483;-54
2022/09/12 08:56:07;;;;;;;6.33;5.83;;;27.80;55.80;;;;;;5047858;28;20446;-54
2022/09/12 08:58:38;;;;;;;5.67;5.10;;;26.70;58.70;;;;;;5047229;28;20563;-54
2022/09/12 09:01:30;;;;;;;5.97;5.47;;;25.60;62.50;;;;;;5041369;28;20954;-54
2022/09/12 09:04:26;;;;;;;5.87;5.47;;;24.70;66.50;;;;;;5036685;28;20530;-54
2022/09/12 09:07:24;;;;;;;6.23;5.57;;;24.30;69.80;;;;;;5049289;28;20921;-54
2022/09/12 09:10:15;;;;;;;6.00;5.50;;;24.10;72.00;;;;;;5007522;28;20509;-53
2022/09/12 09:13:07;;;;;;;7.30;4.80;;;23.70;73.10;;;;;;5046460;28;20420;-54
2022/09/12 09:15:58;;;;;;;6.97;5.30;;;23.40;73.90;;;;;;5048974;28;20434;-55
2022/09/12 09:18:29;;;;;;;6.83;5.10;;;23.40;77.60;;;;;;5045999;28;20416;-54
2022/09/12 09:21:23;;;;;;;6.30;5.70;;;23.50;76.80;;;;;;5050253;28;20467;-54
2022/09/12 09:23:56;;;;;;;6.00;4.97;;;23.40;76.80;;;;;;5045597;28;20865;-53
2022/09/12 09:26:38;;;;;;;5.07;4.60;;;23.30;76.60;;;;;;5044414;28;20468;-54
2022/09/12 09:29:13;;;;;;;4.30;3.90;;;23.10;76.70;;;;;;5043100;28;20436;-54
2022/09/12 09:31:40;;;;;;;4.73;4.33;;;23.30;75.60;;;;;;5048461;28;20869;-53
2022/09/12 09:34:22;;;;;;;3.20;2.70;;;23.30;76.40;;;;;;5045596;28;20511;-54
2022/09/12 09:36:50;;;;;;;2.77;2.57;;;23.40;75.30;;;;;;5048594;28;20428;-54
2022/09/12 09:39:37;;;;;;;2.90;2.70;;;23.60;73.10;;;;;;5046009;28;20869;-54
2022/09/12 09:42:21;;;;;;;2.30;2.20;;;23.70;70.50;;;;;;5044332;28;21129;-54
2022/09/12 09:44:47;;;;;;;2.77;2.57;;;23.80;70.10;;;;;;5049421;28;20421;-54
2022/09/12 09:47:14;;;;;;;2.93;2.73;;;23.90;68.50;;;;;;5049858;28;20515;-54
2022/09/12 09:49:40;;;;;;;2.90;2.70;;;24.40;68.80;;;;;;5044293;28;20444;-54
2022/09/12 09:52:07;;;;;;;2.77;2.57;;;24.60;67.40;;;;;;5046625;28;20437;-54
2022/09/12 09:54:56;;;;;;;2.60;2.40;;;24.80;63.70;;;;;;5041225;28;20493;-54
2022/09/12 09:57:33;;;;;;;2.60;2.40;;;24.90;60.60;;;;;;5046156;28;20449;-54
2022/09/12 10:00:24;;;;;;;2.90;2.70;;;24.80;62.70;;;;;;5050590;28;20462;-54
2022/09/12 10:03:03;;;;;;;3.00;2.80;;;24.80;59.70;;;;;;5046606;28;20470;-55
2022/09/12 10:05:32;;;;;;;2.60;2.50;;;24.80;60.10;;;;;;5035651;28;20445;-54
2022/09/12 10:07:57;;;;;;;2.40;2.20;;;24.90;62.40;;;;;;5048962;28;20417;-55
2022/09/12 10:10:24;;;;;;;2.90;2.70;;;25.00;63.70;;;;;;5043470;28;20451;-54
2022/09/12 10:12:51;;;;;;;3.63;2.50;;;25.00;64.00;;;;;;5050019;28;20527;-54
2022/09/12 10:15:20;;;;;;;3.00;2.80;;;25.00;63.00;;;;;;5048997;28;20432;-54
2022/09/12 10:17:48;;;;;;;2.47;2.30;;;25.00;59.80;;;;;;5044888;28;20442;-54
2022/09/12 10:20:45;;;;;;;2.53;2.37;;;24.80;59.10;;;;;;5048287;28;20440;-54
2022/09/12 10:23:36;;;;;;;3.63;2.50;;;24.60;61.00;;;;;;5048632;28;20980;-54
2022/09/12 10:26:08;;;;;;;2.30;2.20;;;24.60;62.50;;;;;;5028991;28;20615;-55
2022/09/12 10:28:40;;;;;;;2.50;2.30;;;24.70;60.60;;;;;;5048810;28;20428;-55
2022/09/12 10:31:08;;;;;;;2.00;1.90;;;24.70;60.50;;;;;;5046282;28;20510;-54
2022/09/12 10:33:52;;;;;;;2.40;2.20;;;24.70;60.10;;;;;;5044551;28;20452;-55
2022/09/12 10:36:18;;;;;;;2.47;2.30;;;24.60;59.50;;;;;;5050006;28;20442;-55
2022/09/12 10:38:54;;;;;;;2.33;2.20;;;24.70;60.60;;;;;;5049156;28;20429;-54
2022/09/12 10:41:20;;;;;;;2.27;2.17;;;24.90;60.90;;;;;;5049209;28;21147;-55
2022/09/12 10:43:46;;;;;;;2.07;1.97;;;24.70;59.70;;;;;;5052407;28;20473;-55
2022/09/12 10:46:15;;;;;;;1.97;1.87;;;24.70;58.20;;;;;;5051392;28;20794;-54
2022/09/12 10:48:41;;;;;;;2.33;2.23;;;24.70;57.50;;;;;;5049666;28;20635;-55
2022/09/12 10:51:25;;;;;;;2.40;2.20;;;24.70;59.30;;;;;;5042779;28;20501;-54
2022/09/12 10:54:07;;;;;;;2.80;2.60;;;24.70;58.80;;;;;;5040956;28;20443;-54
2022/09/12 10:56:57;;;;;;;2.30;2.20;;;24.70;58.80;;;;;;5051733;28;20428;-55
2022/09/12 10:59:44;;;;;;;2.10;2.00;;;24.70;57.30;;;;;;5046696;28;20447;-54
2022/09/12 11:02:29;;;;;;;2.90;2.70;;;24.80;57.70;;;;;;5050204;28;20449;-55
2022/09/12 11:04:58;;;;;;;2.10;2.00;;;24.90;58.10;;;;;;5048507;28;20512;-55
2022/09/12 11:07:57;;;;;;;1.83;1.73;;;25.00;54.80;;;;;;5051993;28;20441;-54
2022/09/12 11:10:35;;;;;;;3.00;2.80;;;25.10;55.20;;;;;;5044848;28;20554;-54
2022/09/12 11:13:33;;;;;;;2.07;1.97;;;25.00;55.80;;;;;;5047036;28;20437;-54
2022/09/12 11:16:05;;;;;;;2.27;2.17;;;25.20;57.10;;;;;;5032716;28;20449;-54
2022/09/12 11:18:56;;;;;;;2.03;1.93;;;25.20;58.10;;;;;;5049550;28;20863;-59
2022/09/12 11:21:28;;;;;;;1.60;1.50;;;25.30;54.80;;;;;;5049994;28;20452;-56
2022/09/12 11:24:11;;;;;;;2.67;2.10;;;25.20;54.80;;;;;;5049687;28;20462;-57
2022/09/12 11:26:54;;;;;;;2.33;1.80;;;25.10;56.10;;;;;;5050799;28;20442;-59
2022/09/12 11:29:45;;;;;;;1.93;1.83;;;25.20;56.70;;;;;;5047063;28;20446;-57
2022/09/12 11:32:44;;;;;;;2.23;1.77;;;25.20;57.20;;;;;;5047870;28;20430;-55
2022/09/12 11:35:43;;;;;;;2.20;2.10;;;25.30;54.90;;;;;;5048089;28;20504;-55
2022/09/12 11:38:46;;;;;;;2.00;1.90;;;25.40;54.80;;;;;;5050864;28;20941;-55
2022/09/12 11:41:28;;;;;;;2.23;2.03;;;25.30;55.50;;;;;;5048021;28;20495;-58
2022/09/12 11:44:13;;;;;;;1.93;1.53;;;25.40;55.30;;;;;;5050445;28;20608;-61
2022/09/12 11:46:42;;;;;;;3.07;1.83;;;25.40;55.20;;;;;;5046964;28;20575;-54
2022/09/12 11:49:13;;;;;;;1.80;1.70;;;25.20;55.80;;;;;;5050314;28;20514;-58
2022/09/12 11:51:53;;;;;;;1.67;1.57;;;25.20;55.40;;;;;;5050843;28;20462;-55
2022/09/12 11:54:27;;;;;;;2.00;1.40;;;25.40;55.90;;;;;;5050223;28;20869;-58
2022/09/12 11:57:10;;;;;;;1.77;1.60;;;25.70;53.80;;;;;;5050966;28;20463;-55
2022/09/12 12:00:06;;;;;;;1.50;1.40;;;26.00;53.60;;;;;;5047874;28;20481;-55
2022/09/12 12:03:07;;;;;;;1.80;1.70;;;26.50;52.40;;;;;;5049238;28;20538;-57
2022/09/12 12:05:41;;;;;;;1.73;1.63;;;26.60;52.60;;;;;;5047333;28;20443;-54
2022/09/12 12:08:08;;;;;;;1.80;1.70;;;26.50;53.10;;;;;;5042347;28;20527;-56
2022/09/12 12:10:42;;;;;;;1.80;1.70;;;26.50;52.50;;;;;;5042135;28;20823;-54
2022/09/12 12:13:31;;;;;;;2.27;2.07;;;26.40;53.10;;;;;;5043864;28;20875;-54
2022/09/12 12:16:02;;;;;;;2.03;1.73;;;26.40;53.50;;;;;;5041646;28;20443;-55
2022/09/12 12:18:30;;;;;;;1.87;1.50;;;26.50;53.30;;;;;;5046084;28;20435;-54
2022/09/12 12:21:19;;;;;;;1.63;1.30;;;26.40;53.30;;;;;;5042978;28;21015;-54
2022/09/12 12:24:06;;;;;;;2.70;1.40;;;26.30;51.50;;;;;;5050208;28;20471;-54
2022/09/12 12:26:38;;;;;;;1.90;1.80;;;26.20;52.70;;;;;;5048245;28;20950;-54
2022/09/12 12:29:16;;;;;;;1.90;1.40;;;26.00;53.50;;;;;;5049320;28;20520;-55
2022/09/12 12:32:03;;;;;;;1.70;1.60;;;25.90;54.30;;;;;;5049463;28;20479;-55
2022/09/12 12:34:35;;;;;;;1.60;1.50;;;25.80;55.00;;;;;;5049892;28;20518;-55
2022/09/12 12:37:19;;;;;;;2.13;2.03;;;25.80;54.70;;;;;;5048350;28;20517;-54
2022/09/12 12:39:52;;;;;;;2.10;1.90;;;25.70;55.30;;;;;;5044366;28;20569;-55
2022/09/12 12:45:22;;;;;;;1.87;1.73;;;25.60;54.90;;;;;;5047616;28;20438;-53
2022/09/12 12:47:54;;;;;;;1.73;1.63;;;25.50;54.20;;;;;;5046387;28;20484;-54
2022/09/12 12:50:25;;;;;;;1.70;1.60;;;25.60;54.70;;;;;;5050670;28;20440;-54
2022/09/12 12:52:50;;;;;;;1.80;1.70;;;25.50;55.10;;;;;;5032368;28;20447;-54
2022/09/12 12:55:19;;;;;;;1.97;1.73;;;25.50;55.50;;;;;;5048882;28;20446;-54
2022/09/12 12:57:53;;;;;;;1.60;1.50;;;25.50;55.60;;;;;;5041797;28;20212;-54
2022/09/12 13:00:19;;;;;;;1.67;1.23;;;25.50;53.30;;;;;;5044030;28;20456;-55
2022/09/12 13:03:06;;;;;;;4.20;3.90;;;25.50;54.10;;;;;;5048689;28;20842;-55
2022/09/12 13:05:50;;;;;;;1.50;1.40;;;25.50;54.00;;;;;;5044200;28;20720;-55
2022/09/12 13:08:15;;;;;;;3.50;3.23;;;25.50;54.30;;;;;;5044703;28;20939;-55
2022/09/12 13:10:52;;;;;;;3.53;1.60;;;25.50;55.00;;;;;;5042402;28;20516;-55
2022/09/12 13:13:49;;;;;;;1.43;1.33;;;25.50;54.80;;;;;;5050290;28;20196;-55